createdAt,value
2018-06-09T00:01:54.426Z,17.60
2018-06-09T00:04:25.037Z,18.43
2018-06-09T00:06:55.719Z,24.93
2018-06-09T00:09:25.940Z,17.70
2018-06-09T00:11:56.793Z,18.00
2018-06-09T00:14:26.980Z,18.60
2018-06-09T00:16:58.102Z,16.93
2018-06-09T00:19:28.551Z,16.47
2018-06-09T00:21:59.313Z,16.10
2018-06-09T00:24:29.993Z,18.83
2018-06-09T00:27:00.726Z,18.10
2018-06-09T00:29:31.397Z,27.90
2018-06-09T00:32:02.237Z,17.43
2018-06-09T00:34:32.854Z,17.60
2018-06-09T00:37:03.560Z,22.57
2018-06-09T00:39:34.187Z,18.17
2018-06-09T00:42:04.924Z,19.60
2018-06-09T00:44:35.602Z,18.47
2018-06-09T00:47:06.340Z,20.00
2018-06-09T00:49:37.013Z,18.13
2018-06-09T00:52:08.164Z,18.87
2018-06-09T00:54:38.834Z,17.77
2018-06-09T00:57:09.562Z,18.57
2018-06-09T00:59:40.261Z,17.07
2018-06-09T01:02:11.027Z,16.50
2018-06-09T01:04:41.608Z,18.63
2018-06-09T01:07:12.289Z,19.43
2018-06-09T01:09:42.989Z,17.37
2018-06-09T01:12:13.677Z,17.10
2018-06-09T01:14:44.354Z,16.10
2018-06-09T01:17:15.046Z,16.23
2018-06-09T01:19:45.704Z,18.63
2018-06-09T01:22:16.489Z,17.60
2018-06-09T01:24:47.185Z,17.27
2018-06-09T01:27:17.885Z,17.50
2018-06-09T01:29:48.554Z,18.17
2018-06-09T01:32:19.369Z,22.10
2018-06-09T01:34:50.023Z,17.93
2018-06-09T01:37:20.869Z,20.40
2018-06-09T01:39:51.577Z,18.50
2018-06-09T01:42:22.695Z,18.67
2018-06-09T01:44:53.366Z,26.37
2018-06-09T01:47:23.982Z,19.40
2018-06-09T01:49:54.678Z,18.57
2018-06-09T01:52:25.774Z,19.00
2018-06-09T01:54:56.385Z,24.27
2018-06-09T01:57:27.329Z,19.83
2018-06-09T01:59:57.965Z,20.27
2018-06-09T02:02:28.545Z,18.20
2018-06-09T02:04:59.241Z,22.87
2018-06-09T02:07:30.065Z,18.10
2018-06-09T02:10:00.793Z,18.53
2018-06-09T02:12:31.620Z,20.90
2018-06-09T02:15:02.255Z,18.03
2018-06-09T02:17:33.322Z,22.43
2018-06-09T02:20:04.198Z,19.80
2018-06-09T02:22:34.985Z,24.67
2018-06-09T02:25:05.614Z,29.93
2018-06-09T02:27:36.409Z,30.43
2018-06-09T02:30:07.063Z,24.10
2018-06-09T02:32:37.893Z,21.53
2018-06-09T02:35:08.594Z,29.03
2018-06-09T02:37:39.522Z,32.30
2018-06-09T02:40:10.146Z,31.77
2018-06-09T02:42:40.805Z,27.83
2018-06-09T02:45:11.473Z,44.70
2018-06-09T02:47:42.299Z,28.53
2018-06-09T02:50:13.049Z,28.73
2018-06-09T02:52:43.728Z,48.53
2018-06-09T02:55:14.555Z,42.50
2018-06-09T02:57:45.529Z,53.20
2018-06-09T03:00:16.170Z,51.70
2018-06-09T03:02:46.864Z,58.90
2018-06-09T03:05:17.582Z,77.60
2018-06-09T03:07:48.387Z,85.17
2018-06-09T03:10:19.033Z,70.67
2018-06-09T03:12:49.765Z,30.30
2018-06-09T03:15:20.373Z,25.27
2018-06-09T03:17:56.613Z,35.33
2018-06-09T03:20:27.206Z,23.20
2018-06-09T03:22:57.897Z,24.47
2018-06-09T03:25:28.633Z,18.97
2018-06-09T03:27:59.461Z,21.43
2018-06-09T03:30:30.174Z,17.83
2018-06-09T03:33:00.877Z,24.03
2018-06-09T03:35:31.569Z,21.30
2018-06-09T03:38:02.270Z,27.53
2018-06-09T03:40:32.953Z,32.63
2018-06-09T03:43:11.067Z,28.90
2018-06-09T03:45:42.806Z,22.40
2018-06-09T03:48:13.699Z,24.27
2018-06-09T03:50:44.532Z,27.27
2018-06-09T03:53:15.403Z,25.50
2018-06-09T03:55:46.098Z,36.33
2018-06-09T03:58:16.769Z,27.83
2018-06-09T04:00:47.545Z,27.50
2018-06-09T04:03:18.393Z,25.07
2018-06-09T04:05:49.077Z,28.63
2018-06-09T04:08:19.819Z,24.70
2018-06-09T04:10:50.553Z,34.60
2018-06-09T04:13:21.345Z,29.47
2018-06-09T04:15:52.086Z,25.77
2018-06-09T04:18:22.924Z,26.30
2018-06-09T04:20:53.592Z,25.17
2018-06-09T04:23:24.457Z,35.70
2018-06-09T04:25:55.162Z,40.93
2018-06-09T04:28:25.763Z,26.13
2018-06-09T04:30:56.491Z,24.43
2018-06-09T04:33:27.186Z,26.33
2018-06-09T04:35:57.990Z,31.40
2018-06-09T04:38:28.713Z,27.93
2018-06-09T04:40:58.985Z,26.87
2018-06-09T04:43:29.619Z,33.33
2018-06-09T04:46:00.318Z,29.53
2018-06-09T04:48:31.081Z,29.97
2018-06-09T04:51:01.826Z,29.20
2018-06-09T04:53:32.689Z,27.60
2018-06-09T04:56:03.142Z,37.57
2018-06-09T04:58:33.420Z,31.13
2018-06-09T05:01:03.781Z,25.67
2018-06-09T05:03:34.042Z,32.60
2018-06-09T05:06:05.105Z,26.90
2018-06-09T05:08:35.786Z,27.90
2018-06-09T05:11:06.536Z,24.00
2018-06-09T05:13:37.513Z,24.17
2018-06-09T05:16:08.195Z,21.20
2018-06-09T05:18:42.733Z,25.33
2018-06-09T05:21:13.537Z,20.90
2018-06-09T05:23:44.193Z,23.50
2018-06-09T05:26:14.839Z,26.37
2018-06-09T05:28:45.214Z,18.80
2018-06-09T05:31:16.117Z,18.90
2018-06-09T05:33:46.377Z,18.07
2018-06-09T05:36:17.181Z,19.67
2018-06-09T05:38:47.518Z,19.63
2018-06-09T05:41:17.941Z,18.57
2018-06-09T05:43:48.596Z,21.00
2018-06-09T05:46:20.109Z,24.93
2018-06-09T05:48:50.450Z,19.10
2018-06-09T05:51:21.090Z,16.77
2018-06-09T05:53:51.681Z,21.93
2018-06-09T05:56:22.284Z,17.60
2018-06-09T05:58:52.924Z,24.13
2018-06-09T06:01:23.874Z,18.97
2018-06-09T06:03:54.287Z,16.97
2018-06-09T06:06:25.003Z,17.93
2018-06-09T06:08:55.474Z,17.77
2018-06-09T06:11:26.062Z,17.13
2018-06-09T06:13:56.403Z,71.10
2018-06-09T06:16:27.014Z,18.50
2018-06-09T06:18:57.331Z,19.60
2018-06-09T06:21:27.820Z,26.10
2018-06-09T06:23:57.696Z,16.63
2018-06-09T06:26:28.305Z,18.90
2018-06-09T06:28:58.586Z,16.90
2018-06-09T06:31:29.109Z,17.53
2018-06-09T06:33:59.890Z,16.87
2018-06-09T06:36:30.437Z,16.27
2018-06-09T06:39:00.717Z,24.13
2018-06-09T06:41:31.090Z,16.43
2018-06-09T06:44:01.543Z,21.13
2018-06-09T06:46:32.147Z,16.23
2018-06-09T06:49:02.816Z,17.53
2018-06-09T06:51:33.077Z,15.37
2018-06-09T06:54:03.706Z,23.43
2018-06-09T06:56:34.007Z,21.30
2018-06-09T06:59:04.342Z,15.70
2018-06-09T07:01:34.814Z,16.57
2018-06-09T07:04:05.158Z,20.80
2018-06-09T07:06:35.901Z,17.43
2018-06-09T07:09:09.026Z,18.40
2018-06-09T07:11:39.721Z,20.13
2018-06-09T07:14:09.999Z,17.53
2018-06-09T07:16:40.317Z,23.63
2018-06-09T07:19:10.887Z,19.03
2018-06-09T07:21:41.173Z,23.03
2018-06-09T07:24:11.538Z,21.50
2018-06-09T07:26:41.829Z,21.70
2018-06-09T07:29:12.298Z,20.83
2018-06-09T07:31:42.591Z,18.77
2018-06-09T07:34:12.959Z,16.43
2018-06-09T07:36:43.314Z,17.27
2018-06-09T07:39:13.692Z,15.73
2018-06-09T07:41:44.012Z,17.50
2018-06-09T07:44:14.598Z,18.37
2018-06-09T07:46:45.166Z,19.03
2018-06-09T07:49:15.589Z,20.07
2018-06-09T07:51:45.910Z,23.80
2018-06-09T07:54:16.186Z,15.63
2018-06-09T07:56:46.933Z,19.30
2018-06-09T07:59:17.638Z,16.80
2018-06-09T08:01:48.076Z,15.70
2018-06-09T08:04:18.337Z,17.27
2018-06-09T08:06:48.679Z,15.30
2018-06-09T08:09:19.018Z,15.37
2018-06-09T08:11:49.408Z,17.00
2018-06-09T08:14:19.700Z,20.47
2018-06-09T08:16:49.994Z,16.83
2018-06-09T08:19:20.763Z,15.57
2018-06-09T08:21:51.249Z,23.93
2018-06-09T08:24:21.581Z,20.83
2018-06-09T08:26:51.861Z,18.30
2018-06-09T08:29:22.137Z,14.77
2018-06-09T08:31:52.653Z,18.27
2018-06-09T08:34:22.962Z,14.37
2018-06-09T08:36:53.744Z,21.33
2018-06-09T08:39:24.553Z,13.63
2018-06-09T08:41:55.319Z,17.90
2018-06-09T08:44:25.665Z,13.87
2018-06-09T08:46:56.010Z,15.37
2018-06-09T08:49:26.573Z,16.27
2018-06-09T08:51:57.050Z,18.57
2018-06-09T08:54:27.379Z,18.43
2018-06-09T08:56:57.719Z,14.90
2018-06-09T08:59:28.318Z,12.47
2018-06-09T09:01:58.869Z,13.87
2018-06-09T09:04:29.203Z,17.70
2018-06-09T09:06:59.522Z,13.33
2018-06-09T09:09:30.381Z,16.70
2018-06-09T09:12:00.665Z,15.27
2018-06-09T09:14:30.934Z,15.63
2018-06-09T09:17:01.646Z,16.67
2018-06-09T09:19:31.921Z,14.47
2018-06-09T09:22:02.531Z,17.10
2018-06-09T09:24:33.274Z,14.47
2018-06-09T09:27:03.885Z,12.03
2018-06-09T09:29:34.156Z,12.07
2018-06-09T09:32:05.627Z,13.37
2018-06-09T09:34:35.962Z,12.70
2018-06-09T09:37:06.305Z,12.67
2018-06-09T09:39:36.583Z,12.37
2018-06-09T09:42:06.941Z,11.53
2018-06-09T09:44:37.258Z,10.73
2018-06-09T09:47:08.163Z,15.53
2018-06-09T09:49:39.078Z,11.00
2018-06-09T09:52:09.421Z,17.02
2018-06-09T09:54:41.122Z,15.80
2018-06-09T09:57:11.522Z,12.23
2018-06-09T09:59:41.801Z,13.50
2018-06-09T10:02:12.194Z,13.03
2018-06-09T10:04:42.548Z,12.90
2018-06-09T10:07:12.869Z,11.85
2018-06-09T10:09:43.232Z,11.18
2018-06-09T10:12:13.625Z,11.20
2018-06-09T10:14:43.978Z,12.28
2018-06-09T10:17:14.471Z,14.05
2018-06-09T10:19:44.782Z,11.85
2018-06-09T10:22:15.274Z,13.62
2018-06-09T10:24:45.650Z,15.05
2018-06-09T10:27:16.366Z,12.55
2018-06-09T10:29:46.661Z,10.28
2018-06-09T10:32:17.664Z,11.35
2018-06-09T10:34:47.958Z,9.85
2018-06-09T10:37:18.406Z,10.95
2018-06-09T10:39:48.731Z,9.03
2018-06-09T10:42:19.113Z,12.45
2018-06-09T10:44:49.909Z,9.58
2018-06-09T10:47:21.014Z,11.85
2018-06-09T10:49:51.689Z,15.90
2018-06-09T10:52:22.527Z,9.80
2018-06-09T10:54:53.271Z,14.60
2018-06-09T10:57:24.083Z,9.35
2018-06-09T10:59:54.742Z,7.15
2018-06-09T11:02:25.626Z,6.37
2018-06-09T11:04:55.933Z,11.65
2018-06-09T11:07:26.423Z,11.28
2018-06-09T11:09:56.721Z,32.48
2018-06-09T11:12:27.470Z,18.17
2018-06-09T11:14:58.210Z,10.00
2018-06-09T11:17:28.994Z,12.73
2018-06-09T11:19:59.514Z,12.80
2018-06-09T11:22:30.446Z,7.20
2018-06-09T11:25:00.758Z,6.30
2018-06-09T11:27:31.141Z,9.83
2018-06-09T11:30:01.488Z,8.25
2018-06-09T11:32:31.796Z,6.78
2018-06-09T11:35:02.133Z,7.78
2018-06-09T11:37:32.769Z,7.65
2018-06-09T11:40:03.166Z,6.37
2018-06-09T11:42:33.595Z,9.30
2018-06-09T11:45:04.387Z,17.52
2018-06-09T11:47:34.686Z,11.12
2018-06-09T11:50:05.102Z,8.30
2018-06-09T11:52:35.394Z,7.62
2018-06-09T11:55:05.699Z,7.53
2018-06-09T11:57:36.040Z,9.23
2018-06-09T12:00:06.354Z,5.78
2018-06-09T12:02:36.810Z,5.60
2018-06-09T12:05:07.207Z,7.53
2018-06-09T12:07:37.813Z,9.00
2018-06-09T12:10:08.509Z,6.33
2018-06-09T12:12:38.940Z,6.35
2018-06-09T12:15:09.256Z,8.18
2018-06-09T12:17:40.082Z,7.97
2018-06-09T12:20:10.770Z,9.65
2018-06-09T12:22:41.329Z,9.88
2018-06-09T12:25:11.913Z,7.17
2018-06-09T12:27:42.267Z,6.58
2018-06-09T12:30:12.945Z,6.10
2018-06-09T12:32:43.722Z,8.95
2018-06-09T12:35:14.358Z,8.88
2018-06-09T12:37:45.233Z,7.08
2018-06-09T12:40:16.026Z,7.33
2018-06-09T12:42:46.757Z,4.67
2018-06-09T12:45:17.449Z,6.42
2018-06-09T12:47:48.530Z,7.87
2018-06-09T12:50:18.883Z,6.60
2018-06-09T12:52:49.837Z,4.87
2018-06-09T12:55:20.482Z,6.58
2018-06-09T12:57:51.354Z,6.60
2018-06-09T13:00:22.108Z,8.85
2018-06-09T13:02:52.765Z,8.05
2018-06-09T13:05:23.054Z,5.58
2018-06-09T13:07:54.046Z,6.08
2018-06-09T13:10:24.838Z,6.70
2018-06-09T13:12:55.559Z,9.85
2018-06-09T13:15:26.347Z,5.28
2018-06-09T13:17:57.215Z,6.10
2018-06-09T13:20:27.973Z,8.98
2018-06-09T13:22:58.705Z,6.90
2018-06-09T13:25:29.390Z,9.05
2018-06-09T13:27:59.722Z,4.12
2018-06-09T13:30:30.007Z,7.85
2018-06-09T13:33:00.701Z,7.12
2018-06-09T13:35:31.386Z,6.53
2018-06-09T13:38:02.189Z,5.62
2018-06-09T13:40:32.952Z,12.07
2018-06-09T13:43:04.206Z,9.73
2018-06-09T13:45:34.453Z,6.42
2018-06-09T13:48:04.970Z,8.70
2018-06-09T13:50:35.282Z,4.92
2018-06-09T13:53:05.849Z,11.38
2018-06-09T13:55:36.150Z,7.65
2018-06-09T13:58:06.525Z,9.33
2018-06-09T14:00:36.821Z,8.40
2018-06-09T14:03:07.309Z,14.53
2018-06-09T14:05:37.602Z,9.43
2018-06-09T14:08:08.154Z,11.20
2018-06-09T14:10:38.452Z,8.60
2018-06-09T14:13:08.897Z,7.03
2018-06-09T14:15:39.199Z,11.43
2018-06-09T14:18:09.497Z,11.57
2018-06-09T14:20:39.861Z,5.77
2018-06-09T14:23:10.202Z,6.80
2018-06-09T14:25:40.555Z,7.13
2018-06-09T14:28:10.866Z,7.03
2018-06-09T14:30:42.818Z,6.27
2018-06-09T14:33:13.430Z,7.87
2018-06-09T14:35:43.817Z,12.00
2018-06-09T14:38:14.129Z,9.60
2018-06-09T14:40:44.548Z,9.23
2018-06-09T14:43:14.849Z,12.80
2018-06-09T14:45:46.516Z,8.70
2018-06-09T14:48:16.869Z,8.23
2018-06-09T14:50:47.285Z,8.48
2018-06-09T14:53:17.597Z,11.65
2018-06-09T14:55:48.142Z,7.85
2018-06-09T14:58:18.501Z,16.87
2018-06-09T15:00:49.110Z,7.80
2018-06-09T15:03:19.417Z,8.95
2018-06-09T15:05:49.373Z,10.00
2018-06-09T15:08:20.517Z,12.00
2018-06-09T15:10:51.217Z,7.03
2018-06-09T15:13:21.554Z,17.67
2018-06-09T15:15:52.005Z,9.85
2018-06-09T15:18:22.309Z,11.70
2018-06-09T15:20:52.733Z,9.43
2018-06-09T15:23:23.014Z,9.60
2018-06-09T15:25:53.394Z,8.85
2018-06-09T15:28:23.798Z,14.93
2018-06-09T15:30:54.246Z,8.50
2018-06-09T15:33:24.746Z,7.33
2018-06-09T15:35:55.057Z,8.97
2018-06-09T15:38:25.362Z,9.50
2018-06-09T15:40:55.834Z,9.07
2018-06-09T15:43:26.129Z,15.40
2018-06-09T15:45:56.423Z,9.97
2018-06-09T15:48:26.989Z,17.50
2018-06-09T15:50:57.312Z,14.57
2018-06-09T15:53:27.640Z,14.93
2018-06-09T15:55:57.962Z,11.50
2018-06-09T15:58:28.261Z,9.00
2018-06-09T16:00:58.570Z,8.87
2018-06-09T16:03:28.833Z,12.53
2018-06-09T16:05:59.220Z,7.83
2018-06-09T16:08:29.493Z,13.17
2018-06-09T16:10:59.875Z,9.77
2018-06-09T16:13:30.150Z,11.80
2018-06-09T16:16:00.594Z,8.93
2018-06-09T16:18:30.885Z,6.03
2018-06-09T16:21:00.712Z,8.03
2018-06-09T16:23:31.269Z,8.23
2018-06-09T16:26:01.539Z,10.83
2018-06-09T16:28:31.994Z,8.40
2018-06-09T16:31:02.339Z,11.97
2018-06-09T16:33:32.884Z,10.57
2018-06-09T16:36:03.162Z,9.77
2018-06-09T16:38:33.706Z,13.73
2018-06-09T16:41:03.999Z,9.33
2018-06-09T16:43:34.437Z,9.03
2018-06-09T16:46:04.768Z,15.83
2018-06-09T16:48:35.154Z,11.03
2018-06-09T16:51:05.486Z,11.87
2018-06-09T16:53:36.025Z,12.53
2018-06-09T16:56:06.415Z,9.27
2018-06-09T16:58:36.986Z,11.23
2018-06-09T17:01:07.358Z,11.57
2018-06-09T17:03:37.725Z,12.40
2018-06-09T17:06:08.019Z,9.00
2018-06-09T17:08:38.298Z,6.37
2018-06-09T17:11:09.013Z,8.87
2018-06-09T17:13:39.321Z,11.20
2018-06-09T17:16:09.703Z,10.67
2018-06-09T17:18:40.091Z,12.70
2018-06-09T17:21:10.417Z,10.97
2018-06-09T17:23:40.746Z,11.93
2018-06-09T17:26:11.042Z,12.47
2018-06-09T17:28:41.686Z,13.20
2018-06-09T17:31:11.967Z,9.03
2018-06-09T17:33:42.738Z,9.57
2018-06-09T17:36:13.010Z,9.57
2018-06-09T17:38:43.406Z,10.30
2018-06-09T17:41:13.682Z,9.17
2018-06-09T17:43:44.054Z,13.27
2018-06-09T17:46:14.401Z,12.93
2018-06-09T17:48:44.897Z,10.40
2018-06-09T17:51:15.219Z,10.50
2018-06-09T17:53:45.541Z,10.20
2018-06-09T17:56:15.823Z,12.17
2018-06-09T17:58:46.146Z,11.30
2018-06-09T18:01:16.494Z,8.47
2018-06-09T18:03:46.773Z,9.77
2018-06-09T18:06:17.142Z,8.53
2018-06-09T18:08:47.834Z,10.30
2018-06-09T18:11:18.117Z,9.30
2018-06-09T18:13:48.515Z,10.93
2018-06-09T18:16:18.802Z,9.03
2018-06-09T18:18:49.221Z,10.87
2018-06-09T18:21:19.671Z,12.47
2018-06-09T18:23:50.337Z,12.80
2018-06-09T18:26:20.658Z,13.17
2018-06-09T18:28:51.793Z,12.27
2018-06-09T18:31:22.053Z,14.40
2018-06-09T18:33:52.622Z,11.20
2018-06-09T18:36:22.942Z,7.57
2018-06-09T18:38:53.318Z,10.40
2018-06-09T18:41:23.148Z,12.17
2018-06-09T18:43:53.756Z,7.90
2018-06-09T18:46:23.994Z,12.07
2018-06-09T18:48:54.559Z,9.57
2018-06-09T18:51:24.912Z,10.73
2018-06-09T18:53:55.217Z,9.93
2018-06-09T18:56:25.682Z,10.97
2018-06-09T18:58:55.971Z,9.87
2018-06-09T19:01:26.365Z,7.63
2018-06-09T19:03:56.715Z,7.33
2018-06-09T19:06:27.434Z,7.30
2018-06-09T19:08:57.727Z,7.00
2018-06-09T19:11:27.556Z,7.03
2018-06-09T19:13:58.021Z,14.23
2018-06-09T19:16:28.382Z,9.57
2018-06-09T19:19:00.927Z,11.37
2018-06-09T19:21:31.222Z,52.77
2018-06-09T19:24:01.749Z,14.57
2018-06-09T19:26:32.035Z,10.40
2018-06-09T19:29:02.391Z,8.90
2018-06-09T19:31:32.729Z,10.20
2018-06-09T19:34:03.174Z,12.73
2018-06-09T19:36:33.458Z,9.57
2018-06-09T19:39:04.063Z,11.33
2018-06-09T19:41:34.511Z,16.47
2018-06-09T19:44:04.736Z,13.80
2018-06-09T19:46:35.703Z,37.13
2018-06-09T19:49:06.046Z,12.63
2018-06-09T19:51:36.370Z,13.40
2018-06-09T19:54:06.809Z,11.47
2018-06-09T19:56:37.088Z,11.43
2018-06-09T19:59:07.778Z,47.17
2018-06-09T20:01:38.110Z,34.97
2018-06-09T20:04:08.474Z,14.90
2018-06-09T20:06:39.276Z,18.40
2018-06-09T20:09:10.833Z,14.43
2018-06-09T20:11:41.218Z,17.27
2018-06-09T20:14:11.811Z,19.57
2018-06-09T20:16:42.163Z,20.27
2018-06-09T20:19:12.595Z,22.10
2018-06-09T20:21:42.897Z,17.73
2018-06-09T20:24:13.231Z,18.13
2018-06-09T20:26:43.642Z,22.43
2018-06-09T20:29:14.019Z,16.20
2018-06-09T20:31:44.509Z,13.10
2018-06-09T20:34:15.017Z,15.10
2018-06-09T20:36:45.798Z,10.93
2018-06-09T20:39:16.074Z,12.30
2018-06-09T20:41:47.389Z,12.13
2018-06-09T20:44:17.763Z,13.03
2018-06-09T20:46:48.149Z,16.20
2018-06-09T20:49:18.550Z,14.63
2018-06-09T20:51:48.920Z,12.87
2018-06-09T20:54:19.487Z,13.87
2018-06-09T20:56:49.830Z,11.40
2018-06-09T20:59:20.393Z,10.43
2018-06-09T21:01:50.723Z,10.67
2018-06-09T21:04:21.001Z,11.37
2018-06-09T21:06:51.603Z,9.80
2018-06-09T21:09:21.882Z,11.50
2018-06-09T21:11:52.381Z,11.37
2018-06-09T21:14:22.713Z,13.47
2018-06-09T21:16:53.234Z,11.77
2018-06-09T21:19:23.493Z,11.63
2018-06-09T21:21:53.798Z,11.83
2018-06-09T21:24:24.142Z,8.43
2018-06-09T21:26:59.575Z,9.10
2018-06-09T21:29:38.834Z,25.53
2018-06-09T21:32:09.801Z,12.00
2018-06-09T21:35:01.921Z,12.17
2018-06-09T21:37:42.653Z,11.73
2018-06-09T21:40:32.844Z,13.40
2018-06-09T21:43:08.234Z,9.60
2018-06-09T21:45:43.502Z,11.90
2018-06-09T21:48:13.983Z,8.60
2018-06-09T21:50:44.309Z,9.70
2018-06-09T21:53:14.666Z,12.27
2018-06-09T21:55:45.008Z,9.57
2018-06-09T21:58:15.766Z,8.17
2018-06-09T22:00:46.477Z,10.27
2018-06-09T22:03:17.083Z,8.17
2018-06-09T22:05:47.462Z,7.80
2018-06-09T22:08:17.782Z,7.90
2018-06-09T22:10:48.573Z,9.47
2018-06-09T22:13:19.265Z,10.30
2018-06-09T22:15:49.577Z,9.60
2018-06-09T22:18:20.230Z,13.73
2018-06-09T22:20:50.958Z,11.47
2018-06-09T22:23:21.546Z,16.70
2018-06-09T22:25:56.926Z,8.77
2018-06-09T22:28:27.669Z,9.33
2018-06-09T22:30:58.359Z,9.70
2018-06-09T22:33:29.086Z,10.93
2018-06-09T22:35:59.341Z,6.77
2018-06-09T22:38:29.990Z,7.97
2018-06-09T22:41:00.837Z,9.27
2018-06-09T22:43:31.092Z,12.57
2018-06-09T22:46:01.565Z,9.27
2018-06-09T22:48:31.858Z,7.93
2018-06-09T22:51:02.423Z,7.07
2018-06-09T22:53:32.699Z,10.70
2018-06-09T22:56:03.246Z,8.93
2018-06-09T22:58:33.594Z,6.70
2018-06-09T23:01:03.905Z,8.70
2018-06-09T23:03:34.230Z,8.07
2018-06-09T23:06:04.530Z,7.57
2018-06-09T23:08:34.797Z,6.30
2018-06-09T23:11:05.304Z,5.83
2018-06-09T23:13:35.585Z,9.57
2018-06-09T23:16:06.214Z,7.80
2018-06-09T23:18:36.485Z,6.43
2018-06-09T23:21:06.770Z,6.10
2018-06-09T23:23:37.285Z,6.47
2018-06-09T23:26:07.606Z,8.53
2018-06-09T23:28:37.926Z,9.03
2018-06-09T23:31:08.191Z,11.23
2018-06-09T23:33:38.675Z,8.77
2018-06-09T23:36:08.998Z,8.00
2018-06-09T23:38:39.357Z,5.27
2018-06-09T23:41:09.674Z,7.13
2018-06-09T23:43:40.166Z,6.90
2018-06-09T23:46:10.440Z,7.83
2018-06-09T23:48:41.086Z,8.43
2018-06-09T23:51:11.357Z,7.03
2018-06-09T23:53:41.689Z,7.43
2018-06-09T23:56:12.051Z,6.87
2018-06-09T23:58:42.645Z,12.83
